createdAt,value
2019-05-26T00:00:29.585Z,0.00
2019-05-26T00:01:29.584Z,0.00
2019-05-26T00:02:29.581Z,0.00
2019-05-26T00:03:29.612Z,0.00
2019-05-26T00:04:29.580Z,0.00
2019-05-26T00:05:29.578Z,0.00
2019-05-26T00:06:29.579Z,0.00
2019-05-26T00:07:30.920Z,0.00
2019-05-26T00:08:29.596Z,0.00
2019-05-26T00:09:29.573Z,0.00
2019-05-26T00:10:29.567Z,0.00
2019-05-26T00:11:29.563Z,0.00
2019-05-26T00:12:29.565Z,0.00
2019-05-26T00:13:29.590Z,0.00
2019-05-26T00:14:29.560Z,0.00
2019-05-26T00:15:29.562Z,0.00
2019-05-26T00:16:29.552Z,0.00
2019-05-26T00:17:29.550Z,0.00
2019-05-26T00:18:33.114Z,0.00
2019-05-26T00:19:29.546Z,0.00
2019-05-26T00:20:29.541Z,0.00
2019-05-26T00:21:29.550Z,0.00
2019-05-26T00:22:29.541Z,0.00
2019-05-26T00:23:29.592Z,0.00
2019-05-26T00:24:29.534Z,0.00
2019-05-26T00:25:29.530Z,0.00
2019-05-26T00:26:29.536Z,0.00
2019-05-26T00:27:29.530Z,0.00
2019-05-26T00:28:29.554Z,0.00
2019-05-26T00:29:29.529Z,0.00
2019-05-26T00:30:29.540Z,0.00
2019-05-26T00:31:29.515Z,0.00
2019-05-26T00:32:29.520Z,0.00
2019-05-26T00:33:29.553Z,0.00
2019-05-26T00:34:29.511Z,0.00
2019-05-26T00:35:29.514Z,0.00
2019-05-26T00:36:29.511Z,0.00
2019-05-26T00:37:29.511Z,0.00
2019-05-26T00:38:29.537Z,0.00
2019-05-26T00:39:29.498Z,0.00
2019-05-26T00:40:29.503Z,0.00
2019-05-26T00:41:29.499Z,0.00
2019-05-26T00:42:29.494Z,0.00
2019-05-26T00:43:29.492Z,0.00
2019-05-26T00:44:29.521Z,0.00
2019-05-26T00:45:29.485Z,0.00
2019-05-26T00:46:29.483Z,0.00
2019-05-26T00:47:29.484Z,0.00
2019-05-26T00:48:29.476Z,0.00
2019-05-26T00:49:29.507Z,0.00
2019-05-26T00:50:29.476Z,0.00
2019-05-26T00:51:29.471Z,0.00
2019-05-26T00:52:29.469Z,0.00
2019-05-26T00:53:29.523Z,0.00
2019-05-26T00:54:29.500Z,0.00
2019-05-26T00:55:29.474Z,0.00
2019-05-26T00:56:29.470Z,0.00
2019-05-26T00:57:29.458Z,0.00
2019-05-26T00:58:29.462Z,0.00
2019-05-26T00:59:29.481Z,0.00
2019-05-26T01:00:29.452Z,0.00
2019-05-26T01:01:29.446Z,0.00
2019-05-26T01:02:29.446Z,0.00
2019-05-26T01:03:29.448Z,0.00
2019-05-26T01:04:29.469Z,0.00
2019-05-26T01:05:29.439Z,0.00
2019-05-26T01:06:29.439Z,0.00
2019-05-26T01:07:29.441Z,0.00
2019-05-26T01:08:29.428Z,0.00
2019-05-26T01:09:29.456Z,0.00
2019-05-26T01:10:29.427Z,0.00
2019-05-26T01:11:29.430Z,0.00
2019-05-26T01:12:29.424Z,0.00
2019-05-26T01:13:29.416Z,0.00
2019-05-26T01:14:29.440Z,0.00
2019-05-26T01:15:29.417Z,0.00
2019-05-26T01:16:29.415Z,0.00
2019-05-26T01:17:29.405Z,0.00
2019-05-26T01:18:29.417Z,0.00
2019-05-26T01:19:29.433Z,0.00
2019-05-26T01:20:29.402Z,0.00
2019-05-26T01:21:29.414Z,0.00
2019-05-26T01:22:29.399Z,0.00
2019-05-26T01:23:29.454Z,0.00
2019-05-26T01:24:29.495Z,0.00
2019-05-26T01:25:29.387Z,0.00
2019-05-26T01:26:29.390Z,0.00
2019-05-26T01:27:29.382Z,0.00
2019-05-26T01:28:29.385Z,0.00
2019-05-26T01:29:29.417Z,0.00
2019-05-26T01:30:29.375Z,0.00
2019-05-26T01:31:29.396Z,0.00
2019-05-26T01:32:29.372Z,0.00
2019-05-26T01:33:29.372Z,0.00
2019-05-26T01:34:29.428Z,0.00
2019-05-26T01:35:29.370Z,0.00
2019-05-26T01:36:29.355Z,0.00
2019-05-26T01:37:29.361Z,0.00
2019-05-26T01:38:29.359Z,0.00
2019-05-26T01:39:29.383Z,0.00
2019-05-26T01:40:29.351Z,0.00
2019-05-26T01:41:29.347Z,0.00
2019-05-26T01:42:29.342Z,0.00
2019-05-26T01:43:29.345Z,0.00
2019-05-26T01:44:29.368Z,0.00
2019-05-26T01:45:29.336Z,0.00
2019-05-26T01:46:29.339Z,0.00
2019-05-26T01:47:29.326Z,0.00
2019-05-26T01:48:29.328Z,0.00
2019-05-26T01:49:29.353Z,0.00
2019-05-26T01:50:29.324Z,0.00
2019-05-26T01:51:29.319Z,0.00
2019-05-26T01:52:29.321Z,0.00
2019-05-26T01:53:29.314Z,0.00
2019-05-26T01:54:29.345Z,0.00
2019-05-26T01:55:29.309Z,0.00
2019-05-26T01:56:29.306Z,0.00
2019-05-26T01:57:29.312Z,0.00
2019-05-26T01:58:29.313Z,0.00
2019-05-26T01:59:29.329Z,0.00
2019-05-26T02:00:29.298Z,0.00
2019-05-26T02:01:29.293Z,0.00
2019-05-26T02:02:29.291Z,0.00
2019-05-26T02:03:29.286Z,0.00
2019-05-26T02:04:29.315Z,0.00
2019-05-26T02:05:29.279Z,0.00
2019-05-26T02:06:29.307Z,0.00
2019-05-26T02:07:29.275Z,0.00
2019-05-26T02:08:38.771Z,0.00
2019-05-26T02:09:29.272Z,0.00
2019-05-26T02:10:29.292Z,0.00
2019-05-26T02:11:29.265Z,0.00
2019-05-26T02:12:29.262Z,0.00
2019-05-26T02:13:29.259Z,0.00
2019-05-26T02:14:29.257Z,0.00
2019-05-26T02:15:29.279Z,0.00
2019-05-26T02:16:29.246Z,0.00
2019-05-26T02:17:29.244Z,0.00
2019-05-26T02:18:29.240Z,0.00
2019-05-26T02:19:29.237Z,0.00
2019-05-26T02:20:29.270Z,0.00
2019-05-26T02:21:29.238Z,0.00
2019-05-26T02:22:29.228Z,0.00
2019-05-26T02:23:29.230Z,0.00
2019-05-26T02:24:29.228Z,0.00
2019-05-26T02:25:29.247Z,0.00
2019-05-26T02:26:29.220Z,0.00
2019-05-26T02:27:29.213Z,0.00
2019-05-26T02:28:29.207Z,0.00
2019-05-26T02:29:29.214Z,0.00
2019-05-26T02:30:29.236Z,0.00
2019-05-26T02:31:29.200Z,0.00
2019-05-26T02:32:29.206Z,0.00
2019-05-26T02:33:29.196Z,0.00
2019-05-26T02:34:29.193Z,0.00
2019-05-26T02:35:29.219Z,0.00
2019-05-26T02:36:29.184Z,0.00
2019-05-26T02:37:29.187Z,0.00
2019-05-26T02:38:29.181Z,0.00
2019-05-26T02:39:29.183Z,0.00
2019-05-26T02:40:29.205Z,0.00
2019-05-26T02:41:29.166Z,0.00
2019-05-26T02:42:29.168Z,0.00
2019-05-26T02:43:29.168Z,0.00
2019-05-26T02:44:29.223Z,0.00
2019-05-26T02:45:29.193Z,0.00
2019-05-26T02:46:29.157Z,0.00
2019-05-26T02:47:29.152Z,0.00
2019-05-26T02:48:29.152Z,0.00
2019-05-26T02:49:29.147Z,0.00
2019-05-26T02:50:29.169Z,0.00
2019-05-26T02:51:29.133Z,0.00
2019-05-26T02:52:29.133Z,0.00
2019-05-26T02:53:29.134Z,0.00
2019-05-26T02:54:29.131Z,0.00
2019-05-26T02:55:29.153Z,5.63
2019-05-26T02:56:29.123Z,5.63
2019-05-26T02:57:29.116Z,5.63
2019-05-26T02:58:29.122Z,5.63
2019-05-26T02:59:29.119Z,5.63
2019-05-26T03:00:29.134Z,5.63
2019-05-26T03:01:29.115Z,5.63
2019-05-26T03:02:29.107Z,5.63
2019-05-26T03:03:29.103Z,11.25
2019-05-26T03:04:29.096Z,11.25
2019-05-26T03:05:29.115Z,11.25
2019-05-26T03:06:29.096Z,11.25
2019-05-26T03:07:29.082Z,11.25
2019-05-26T03:08:29.091Z,16.88
2019-05-26T03:09:29.093Z,16.88
2019-05-26T03:10:29.120Z,16.88
2019-05-26T03:11:29.077Z,16.88
2019-05-26T03:12:29.073Z,22.50
2019-05-26T03:13:29.071Z,22.50
2019-05-26T03:14:29.057Z,22.50
2019-05-26T03:15:29.093Z,28.13
2019-05-26T03:16:29.057Z,28.13
2019-05-26T03:17:29.059Z,28.13
2019-05-26T03:18:29.050Z,33.75
2019-05-26T03:19:29.044Z,33.75
2019-05-26T03:20:29.042Z,39.38
2019-05-26T03:21:29.070Z,39.38
2019-05-26T03:22:29.043Z,45.00
2019-05-26T03:23:29.029Z,45.00
2019-05-26T03:24:29.029Z,50.63
2019-05-26T03:25:29.026Z,50.63
2019-05-26T03:26:29.050Z,56.25
2019-05-26T03:27:29.018Z,56.25
2019-05-26T03:28:29.016Z,61.88
2019-05-26T03:29:29.018Z,61.88
2019-05-26T03:30:29.008Z,67.50
2019-05-26T03:31:29.047Z,73.13
2019-05-26T03:32:29.003Z,78.75
2019-05-26T03:33:29.005Z,78.75
2019-05-26T03:34:29.017Z,84.38
2019-05-26T03:35:29.075Z,90.00
2019-05-26T03:36:29.024Z,90.00
2019-05-26T03:37:29.002Z,95.63
2019-05-26T03:38:28.983Z,101.25
2019-05-26T03:39:43.610Z,106.88
2019-05-26T03:40:28.983Z,112.50
2019-05-26T03:41:28.996Z,112.50
2019-05-26T03:42:28.972Z,118.13
2019-05-26T03:43:28.964Z,118.13
2019-05-26T03:44:28.968Z,123.75
2019-05-26T03:45:28.965Z,123.75
2019-05-26T03:46:28.989Z,129.38
2019-05-26T03:47:28.957Z,135.00
2019-05-26T03:48:28.959Z,135.00
2019-05-26T03:49:28.944Z,140.63
2019-05-26T03:50:28.953Z,140.63
2019-05-26T03:51:28.973Z,146.25
2019-05-26T03:52:28.947Z,146.25
2019-05-26T03:53:28.941Z,151.88
2019-05-26T03:54:28.939Z,157.50
2019-05-26T03:55:28.930Z,163.13
2019-05-26T03:56:28.962Z,174.38
2019-05-26T03:57:28.928Z,185.63
2019-05-26T03:58:28.923Z,196.88
2019-05-26T03:59:28.918Z,219.38
2019-05-26T04:00:28.919Z,225.00
2019-05-26T04:01:28.939Z,230.63
2019-05-26T04:02:28.917Z,236.25
2019-05-26T04:03:28.913Z,247.50
2019-05-26T04:04:28.916Z,253.13
2019-05-26T04:05:28.908Z,264.38
2019-05-26T04:06:28.899Z,270.00
2019-05-26T04:07:28.936Z,275.63
2019-05-26T04:08:28.895Z,286.88
2019-05-26T04:09:28.900Z,292.50
2019-05-26T04:10:28.891Z,298.13
2019-05-26T04:11:28.890Z,303.75
2019-05-26T04:12:28.914Z,303.75
2019-05-26T04:13:28.883Z,309.38
2019-05-26T04:14:28.881Z,315.00
2019-05-26T04:15:28.884Z,315.00
2019-05-26T04:16:28.878Z,320.63
2019-05-26T04:17:28.901Z,326.25
2019-05-26T04:18:28.876Z,337.50
2019-05-26T04:19:28.867Z,343.13
2019-05-26T04:20:28.878Z,331.88
2019-05-26T04:21:28.879Z,331.88
2019-05-26T04:22:28.894Z,331.88
2019-05-26T04:23:28.875Z,331.88
2019-05-26T04:24:28.866Z,337.50
2019-05-26T04:25:28.859Z,331.88
2019-05-26T04:26:28.858Z,337.50
2019-05-26T04:27:28.888Z,343.13
2019-05-26T04:28:28.858Z,354.38
2019-05-26T04:29:28.854Z,365.63
2019-05-26T04:30:28.853Z,376.88
2019-05-26T04:31:28.867Z,382.50
2019-05-26T04:32:28.879Z,365.63
2019-05-26T04:33:28.844Z,315.00
2019-05-26T04:34:28.860Z,382.50
2019-05-26T04:35:28.847Z,393.75
2019-05-26T04:36:28.843Z,399.38
2019-05-26T04:37:28.875Z,399.38
2019-05-26T04:38:28.840Z,405.00
2019-05-26T04:39:28.843Z,410.63
2019-05-26T04:40:28.857Z,416.25
2019-05-26T04:41:28.846Z,427.50
2019-05-26T04:42:28.868Z,427.50
2019-05-26T04:43:29.794Z,438.75
2019-05-26T04:44:28.839Z,444.38
2019-05-26T04:45:28.839Z,455.63
2019-05-26T04:46:28.839Z,461.25
2019-05-26T04:47:28.861Z,461.25
2019-05-26T04:48:28.843Z,472.50
2019-05-26T04:49:28.847Z,483.75
2019-05-26T04:50:28.837Z,495.00
2019-05-26T04:51:28.835Z,500.63
2019-05-26T04:52:28.865Z,511.88
2019-05-26T04:53:28.840Z,511.88
2019-05-26T04:54:28.840Z,511.88
2019-05-26T04:55:28.846Z,517.50
2019-05-26T04:56:28.839Z,523.13
2019-05-26T04:57:28.865Z,528.75
2019-05-26T04:58:28.836Z,551.25
2019-05-26T04:59:28.844Z,551.25
2019-05-26T05:00:28.833Z,596.25
2019-05-26T05:01:29.813Z,551.25
2019-05-26T05:02:28.864Z,585.00
2019-05-26T05:03:28.837Z,590.63
2019-05-26T05:04:29.798Z,590.63
2019-05-26T05:05:28.843Z,601.88
2019-05-26T05:06:28.841Z,624.38
2019-05-26T05:07:28.982Z,573.75
2019-05-26T05:08:28.842Z,579.38
2019-05-26T05:09:28.846Z,573.75
2019-05-26T05:10:41.759Z,573.75
2019-05-26T05:11:28.846Z,573.75
2019-05-26T05:12:28.885Z,585.00
2019-05-26T05:13:28.859Z,585.00
2019-05-26T05:14:28.860Z,585.00
2019-05-26T05:15:28.853Z,573.75
2019-05-26T05:16:28.848Z,596.25
2019-05-26T05:17:28.879Z,601.88
2019-05-26T05:18:28.866Z,596.25
2019-05-26T05:19:28.852Z,596.25
2019-05-26T05:20:28.859Z,607.50
2019-05-26T05:21:28.852Z,624.38
2019-05-26T05:22:28.891Z,607.50
2019-05-26T05:23:29.805Z,630.00
2019-05-26T05:24:28.869Z,635.63
2019-05-26T05:25:28.896Z,624.38
2019-05-26T05:26:28.865Z,635.63
2019-05-26T05:27:28.931Z,641.25
2019-05-26T05:28:28.878Z,641.25
2019-05-26T05:29:28.875Z,641.25
2019-05-26T05:30:28.869Z,646.88
2019-05-26T05:31:28.892Z,630.00
2019-05-26T05:32:32.671Z,641.25
2019-05-26T05:33:28.908Z,675.00
2019-05-26T05:34:28.884Z,686.25
2019-05-26T05:35:28.890Z,697.50
2019-05-26T05:36:28.905Z,675.00
2019-05-26T05:37:28.885Z,675.00
2019-05-26T05:38:28.917Z,517.50
2019-05-26T05:39:28.891Z,691.88
2019-05-26T05:40:28.898Z,686.25
2019-05-26T05:41:28.897Z,646.88
2019-05-26T05:42:28.911Z,613.13
2019-05-26T05:43:28.938Z,579.38
2019-05-26T05:44:28.903Z,596.25
2019-05-26T05:45:28.926Z,675.00
2019-05-26T05:46:28.903Z,686.25
2019-05-26T05:47:28.906Z,691.88
2019-05-26T05:48:28.946Z,675.00
2019-05-26T05:49:28.908Z,652.50
2019-05-26T05:50:28.913Z,652.50
2019-05-26T05:51:28.912Z,652.50
2019-05-26T05:52:28.915Z,646.88
2019-05-26T05:53:28.962Z,708.75
2019-05-26T05:54:28.913Z,731.25
2019-05-26T05:55:28.923Z,742.50
2019-05-26T05:56:28.927Z,731.25
2019-05-26T05:57:28.947Z,742.50
2019-05-26T05:58:28.953Z,793.13
2019-05-26T05:59:28.944Z,810.00
2019-05-26T06:00:28.926Z,804.38
2019-05-26T06:01:28.930Z,815.63
2019-05-26T06:02:28.931Z,838.13
2019-05-26T06:03:28.969Z,866.25
2019-05-26T06:04:29.359Z,900.00
2019-05-26T06:05:28.944Z,922.50
2019-05-26T06:06:28.936Z,956.25
2019-05-26T06:07:28.943Z,1001.25
2019-05-26T06:08:28.972Z,1012.50
2019-05-26T06:09:28.942Z,1074.38
2019-05-26T06:10:28.943Z,1125.00
2019-05-26T06:11:28.948Z,1164.38
2019-05-26T06:12:28.953Z,1220.63
2019-05-26T06:13:28.976Z,1265.63
2019-05-26T06:14:29.033Z,1372.50
2019-05-26T06:15:28.953Z,1490.63
2019-05-26T06:16:28.957Z,1591.88
2019-05-26T06:17:28.967Z,1653.75
2019-05-26T06:18:28.993Z,1850.63
2019-05-26T06:19:28.973Z,2030.63
2019-05-26T06:20:28.966Z,2120.63
2019-05-26T06:21:28.968Z,2126.25
2019-05-26T06:22:28.971Z,2120.63
2019-05-26T06:23:29.016Z,2148.75
2019-05-26T06:24:28.980Z,2216.25
2019-05-26T06:25:28.989Z,1935.00
2019-05-26T06:26:28.991Z,1676.25
2019-05-26T06:27:28.983Z,1985.63
2019-05-26T06:28:29.013Z,2103.75
2019-05-26T06:29:28.993Z,2255.63
2019-05-26T06:30:28.996Z,2317.50
2019-05-26T06:31:28.998Z,2311.88
2019-05-26T06:32:29.003Z,2351.25
2019-05-26T06:33:29.030Z,2435.63
2019-05-26T06:34:29.008Z,2581.88
2019-05-26T06:35:32.460Z,2621.25
2019-05-26T06:36:29.009Z,2503.13
2019-05-26T06:37:29.013Z,2514.38
2019-05-26T06:38:29.044Z,2615.63
2019-05-26T06:39:29.026Z,2508.75
2019-05-26T06:40:29.027Z,2486.25
2019-05-26T06:41:33.475Z,2525.63
2019-05-26T06:42:29.039Z,2520.00
2019-05-26T06:43:29.069Z,2649.38
2019-05-26T06:44:29.041Z,2610.00
2019-05-26T06:45:29.049Z,2300.63
2019-05-26T06:46:29.049Z,2233.13
2019-05-26T06:47:29.057Z,2660.63
2019-05-26T06:48:29.061Z,2801.25
2019-05-26T06:49:29.121Z,3054.38
2019-05-26T06:50:29.073Z,2716.88
2019-05-26T06:51:29.083Z,2874.38
2019-05-26T06:52:29.827Z,3020.63
2019-05-26T06:53:29.075Z,2295.00
2019-05-26T06:54:29.123Z,1951.88
2019-05-26T06:55:29.084Z,2660.63
2019-05-26T06:56:29.122Z,2975.63
2019-05-26T06:57:29.129Z,2930.63
2019-05-26T06:58:29.106Z,3110.63
2019-05-26T06:59:29.132Z,3037.50
2019-05-26T07:00:29.113Z,3116.25
2019-05-26T07:01:29.121Z,3206.25
2019-05-26T07:02:29.121Z,3363.75
2019-05-26T07:03:29.127Z,3155.63
2019-05-26T07:04:29.172Z,2958.75
2019-05-26T07:05:29.904Z,3110.63
2019-05-26T07:06:29.140Z,3324.38
2019-05-26T07:07:29.152Z,3195.00
2019-05-26T07:08:29.158Z,3240.00
2019-05-26T07:09:29.185Z,3470.63
2019-05-26T07:10:29.163Z,3172.50
2019-05-26T07:11:29.173Z,2981.25
2019-05-26T07:12:29.213Z,3026.25
2019-05-26T07:13:29.180Z,3251.25
2019-05-26T07:14:29.225Z,3268.13
2019-05-26T07:15:29.190Z,3307.50
2019-05-26T07:16:38.090Z,3560.63
2019-05-26T07:17:29.202Z,3290.63
2019-05-26T07:18:29.209Z,3330.00
2019-05-26T07:19:29.244Z,3273.75
2019-05-26T07:20:29.217Z,3172.50
2019-05-26T07:21:29.271Z,3015.00
2019-05-26T07:22:29.231Z,3161.25
2019-05-26T07:23:29.248Z,3386.25
2019-05-26T07:24:29.685Z,3498.75
2019-05-26T07:25:29.251Z,3448.13
2019-05-26T07:26:29.255Z,3375.00
2019-05-26T07:27:29.259Z,3566.25
2019-05-26T07:28:29.267Z,3498.75
2019-05-26T07:29:29.304Z,3228.75
2019-05-26T07:30:29.284Z,3487.50
2019-05-26T07:31:29.298Z,3498.75
2019-05-26T07:32:29.296Z,3234.38
2019-05-26T07:33:29.300Z,3071.25
2019-05-26T07:34:29.338Z,3268.13
2019-05-26T07:35:29.313Z,3228.75
2019-05-26T07:36:29.326Z,3285.00
2019-05-26T07:37:29.332Z,3172.50
2019-05-26T07:38:29.336Z,3296.25
2019-05-26T07:39:29.370Z,3369.38
2019-05-26T07:40:29.342Z,3251.25
2019-05-26T07:41:29.357Z,3060.00
2019-05-26T07:42:29.363Z,2964.38
2019-05-26T07:43:29.364Z,3183.75
2019-05-26T07:44:29.399Z,3251.25
2019-05-26T07:45:29.378Z,3071.25
2019-05-26T07:46:29.387Z,2998.13
2019-05-26T07:47:29.386Z,3133.13
2019-05-26T07:48:29.404Z,3138.75
2019-05-26T07:49:29.430Z,3245.63
2019-05-26T07:50:29.412Z,2992.50
2019-05-26T07:51:29.425Z,3251.25
2019-05-26T07:52:29.431Z,3650.63
2019-05-26T07:53:29.431Z,3566.25
2019-05-26T07:54:29.460Z,3785.63
2019-05-26T07:55:29.447Z,3836.25
2019-05-26T07:56:29.455Z,3847.50
2019-05-26T07:57:29.459Z,3712.50
2019-05-26T07:58:29.466Z,3830.63
2019-05-26T07:59:29.496Z,4005.00
2019-05-26T08:00:29.480Z,3751.88
2019-05-26T08:01:35.686Z,3746.25
2019-05-26T08:02:29.515Z,3813.75
2019-05-26T08:03:29.503Z,3791.25
2019-05-26T08:04:29.541Z,3836.25
2019-05-26T08:05:29.517Z,4055.63
2019-05-26T08:06:29.585Z,3774.38
2019-05-26T08:07:29.530Z,3425.63
2019-05-26T08:08:29.537Z,3498.75
2019-05-26T08:09:29.574Z,3532.50
2019-05-26T08:10:29.596Z,3577.50
2019-05-26T08:11:29.564Z,3875.63
2019-05-26T08:12:30.714Z,3825.00
2019-05-26T08:13:29.577Z,3678.75
2019-05-26T08:14:29.590Z,3768.75
2019-05-26T08:15:29.626Z,3645.00
2019-05-26T08:16:29.602Z,3673.13
2019-05-26T08:17:29.617Z,3661.88
2019-05-26T08:18:29.620Z,3718.13
2019-05-26T08:19:29.639Z,3678.75
2019-05-26T08:20:29.666Z,3701.25
2019-05-26T08:21:29.647Z,3510.00
2019-05-26T08:22:29.653Z,3487.50
2019-05-26T08:23:29.658Z,3521.25
2019-05-26T08:24:29.671Z,3847.50
2019-05-26T08:25:29.705Z,3847.50
2019-05-26T08:26:29.684Z,3937.50
2019-05-26T08:27:29.691Z,3841.88
2019-05-26T08:28:29.713Z,3875.63
2019-05-26T08:29:29.720Z,3796.88
2019-05-26T08:30:29.751Z,3695.63
2019-05-26T08:31:29.736Z,3588.75
2019-05-26T08:32:29.743Z,3746.25
2019-05-26T08:33:29.750Z,3088.13
2019-05-26T08:34:29.766Z,3639.38
2019-05-26T08:35:29.793Z,3588.75
2019-05-26T08:36:29.777Z,3684.38
2019-05-26T08:37:29.791Z,3813.75
2019-05-26T08:38:29.799Z,3763.13
2019-05-26T08:39:29.810Z,3853.13
2019-05-26T08:40:29.899Z,3954.38
2019-05-26T08:41:29.827Z,4190.63
2019-05-26T08:42:43.844Z,4185.00
2019-05-26T08:43:30.360Z,4117.50
2019-05-26T08:44:29.863Z,3886.88
2019-05-26T08:45:29.902Z,3971.25
2019-05-26T08:46:29.879Z,4190.63
2019-05-26T08:47:29.887Z,4128.75
2019-05-26T08:48:29.899Z,4117.50
2019-05-26T08:49:29.909Z,3903.75
2019-05-26T08:50:29.950Z,4072.50
2019-05-26T08:51:29.925Z,3993.75
2019-05-26T08:52:29.977Z,4100.63
2019-05-26T08:53:29.949Z,4089.38
2019-05-26T08:54:29.961Z,4280.63
2019-05-26T08:55:30.005Z,4213.13
2019-05-26T08:56:29.978Z,4398.75
2019-05-26T08:57:29.989Z,4460.63
2019-05-26T08:58:30.005Z,4443.75
2019-05-26T08:59:30.018Z,4050.00
2019-05-26T09:00:30.057Z,4111.88
2019-05-26T09:01:30.033Z,4179.38
2019-05-26T09:02:30.050Z,4207.50
2019-05-26T09:03:30.178Z,4387.50
2019-05-26T09:04:30.065Z,4612.50
2019-05-26T09:05:30.108Z,4471.88
2019-05-26T09:06:30.097Z,4128.75
2019-05-26T09:07:30.098Z,3886.88
2019-05-26T09:08:30.116Z,3960.00
2019-05-26T09:09:30.132Z,3757.50
2019-05-26T09:10:30.173Z,3864.38
2019-05-26T09:11:30.862Z,4280.63
2019-05-26T09:12:30.155Z,4179.38
2019-05-26T09:13:30.175Z,4061.25
2019-05-26T09:14:30.188Z,4246.88
2019-05-26T09:15:30.226Z,4393.13
2019-05-26T09:16:30.228Z,4432.50
2019-05-26T09:17:30.219Z,4258.13
2019-05-26T09:18:30.232Z,4055.63
2019-05-26T09:19:30.244Z,4365.00
2019-05-26T09:20:30.288Z,4550.63
2019-05-26T09:21:30.268Z,3870.00
2019-05-26T09:22:30.281Z,4235.63
2019-05-26T09:23:30.295Z,4494.38
2019-05-26T09:24:30.309Z,4190.63
2019-05-26T09:25:30.350Z,4415.63
2019-05-26T09:26:30.361Z,4353.75
2019-05-26T09:27:30.339Z,4230.00
2019-05-26T09:28:30.360Z,4533.75
2019-05-26T09:29:30.376Z,4505.63
2019-05-26T09:30:30.385Z,4426.88
2019-05-26T09:31:33.493Z,4455.00
2019-05-26T09:32:30.413Z,4516.88
2019-05-26T09:33:30.430Z,4578.75
2019-05-26T09:34:30.435Z,4342.50
2019-05-26T09:35:30.458Z,4095.00
2019-05-26T09:36:30.500Z,4314.38
2019-05-26T09:37:30.477Z,4612.50
2019-05-26T09:38:31.375Z,4663.13
2019-05-26T09:39:31.375Z,4314.38
2019-05-26T09:40:30.519Z,4151.25
2019-05-26T09:41:30.562Z,4162.50
2019-05-26T09:42:30.554Z,4179.38
2019-05-26T09:43:30.568Z,4269.38
2019-05-26T09:44:30.576Z,4578.75
2019-05-26T09:45:30.616Z,4567.50
2019-05-26T09:46:30.634Z,4516.88
2019-05-26T09:47:30.622Z,4550.63
2019-05-26T09:48:30.648Z,4365.00
2019-05-26T09:49:30.653Z,4348.13
2019-05-26T09:50:30.666Z,4089.38
2019-05-26T09:51:30.788Z,4213.13
2019-05-26T09:52:30.697Z,4663.13
2019-05-26T09:53:30.709Z,4646.25
2019-05-26T09:54:30.720Z,4477.50
2019-05-26T09:55:30.735Z,4505.63
2019-05-26T09:56:30.776Z,4353.75
2019-05-26T09:57:30.760Z,4387.50
2019-05-26T09:58:31.384Z,4342.50
2019-05-26T09:59:30.790Z,4494.38
2019-05-26T10:00:30.808Z,5546.25
2019-05-26T10:01:31.104Z,5467.50
2019-05-26T10:02:31.391Z,4393.13
2019-05-26T10:03:30.849Z,4432.50
2019-05-26T10:04:30.856Z,4725.00
2019-05-26T10:05:30.873Z,4713.75
2019-05-26T10:06:30.925Z,4685.63
2019-05-26T10:07:30.903Z,4449.38
2019-05-26T10:08:30.912Z,4595.63
2019-05-26T10:09:30.921Z,5068.13
2019-05-26T10:10:30.944Z,4950.00
2019-05-26T10:11:30.981Z,4719.38
2019-05-26T10:12:30.966Z,4786.88
2019-05-26T10:13:32.137Z,4528.13
2019-05-26T10:14:31.036Z,4680.00
2019-05-26T10:15:31.886Z,1608.75
2019-05-26T10:16:31.046Z,4854.38
2019-05-26T10:17:31.047Z,4843.13
2019-05-26T10:18:31.046Z,5107.50
2019-05-26T10:19:31.056Z,5045.63
2019-05-26T10:20:31.078Z,4882.50
2019-05-26T10:21:31.114Z,4837.50
2019-05-26T10:22:31.101Z,4820.63
2019-05-26T10:23:31.170Z,4708.13
2019-05-26T10:24:31.157Z,4786.88
2019-05-26T10:25:31.152Z,4876.88
2019-05-26T10:26:31.236Z,4770.00
2019-05-26T10:27:31.190Z,4826.25
2019-05-26T10:28:31.243Z,4905.00
2019-05-26T10:29:31.246Z,2503.13
2019-05-26T10:30:31.245Z,4533.75
2019-05-26T10:31:31.264Z,2553.75
2019-05-26T10:32:31.266Z,4685.63
2019-05-26T10:33:31.300Z,4860.00
2019-05-26T10:34:31.277Z,4972.50
2019-05-26T10:35:31.391Z,4483.13
2019-05-26T10:36:31.320Z,4117.50
2019-05-26T10:37:31.310Z,4156.88
2019-05-26T10:38:31.331Z,4415.63
2019-05-26T10:39:31.340Z,5096.25
2019-05-26T10:40:31.348Z,5270.63
2019-05-26T10:41:31.401Z,4938.75
2019-05-26T10:42:31.388Z,4826.25
2019-05-26T10:43:44.408Z,4612.50
2019-05-26T10:44:31.400Z,4387.50
2019-05-26T10:45:34.291Z,4471.88
2019-05-26T10:46:31.463Z,4561.88
2019-05-26T10:47:31.446Z,4882.50
2019-05-26T10:48:31.473Z,4978.13
2019-05-26T10:49:31.480Z,5073.75
2019-05-26T10:50:31.492Z,4758.75
2019-05-26T10:51:31.536Z,4156.88
2019-05-26T10:52:31.545Z,4590.00
2019-05-26T10:53:31.532Z,5034.38
2019-05-26T10:54:31.544Z,4933.13
2019-05-26T10:55:31.678Z,4820.63
2019-05-26T10:56:31.582Z,4831.88
2019-05-26T10:57:31.622Z,4747.50
2019-05-26T10:58:31.599Z,4876.88
2019-05-26T10:59:31.626Z,4944.38
2019-05-26T11:00:33.084Z,5068.13
2019-05-26T11:01:31.647Z,5259.38
2019-05-26T11:02:31.697Z,5045.63
2019-05-26T11:03:31.715Z,4966.88
2019-05-26T11:04:31.699Z,2233.13
2019-05-26T11:05:31.704Z,4815.00
2019-05-26T11:06:31.723Z,4876.88
2019-05-26T11:07:31.753Z,4938.75
2019-05-26T11:08:31.745Z,4961.25
2019-05-26T11:09:31.760Z,5208.75
2019-05-26T11:10:31.770Z,5540.63
2019-05-26T11:11:31.786Z,5321.25
2019-05-26T11:12:31.826Z,4876.88
2019-05-26T11:13:31.818Z,4882.50
2019-05-26T11:14:31.827Z,4972.50
2019-05-26T11:15:31.922Z,4871.25
2019-05-26T11:16:32.429Z,4826.25
2019-05-26T11:17:31.933Z,4933.13
2019-05-26T11:18:32.459Z,5073.75
2019-05-26T11:19:31.910Z,5045.63
2019-05-26T11:20:31.922Z,5248.13
2019-05-26T11:21:32.058Z,5040.00
2019-05-26T11:22:31.979Z,5017.50
2019-05-26T11:23:31.989Z,4938.75
2019-05-26T11:24:31.981Z,4983.75
2019-05-26T11:25:31.999Z,5130.00
2019-05-26T11:26:32.010Z,5191.88
2019-05-26T11:27:32.057Z,5180.63
2019-05-26T11:28:32.043Z,4691.25
2019-05-26T11:29:32.054Z,4798.13
2019-05-26T11:30:32.071Z,4595.63
2019-05-26T11:31:32.090Z,4578.75
2019-05-26T11:32:32.137Z,4831.88
2019-05-26T11:33:32.130Z,4826.25
2019-05-26T11:34:32.142Z,4500.00
2019-05-26T11:35:32.919Z,4111.88
2019-05-26T11:36:32.971Z,3943.13
2019-05-26T11:37:32.448Z,4038.75
2019-05-26T11:38:33.827Z,4033.13
2019-05-26T11:39:32.223Z,4038.75
2019-05-26T11:40:32.261Z,4404.38
2019-05-26T11:41:32.247Z,4393.13
2019-05-26T11:42:32.297Z,4151.25
2019-05-26T11:43:32.922Z,3926.25
2019-05-26T11:44:32.301Z,3498.75
2019-05-26T11:45:32.329Z,3245.63
2019-05-26T11:46:32.326Z,2795.63
2019-05-26T11:47:32.375Z,3363.75
2019-05-26T11:48:32.354Z,3605.63
2019-05-26T11:49:32.367Z,3549.38
2019-05-26T11:50:32.413Z,3453.75
2019-05-26T11:51:32.401Z,3307.50
2019-05-26T11:52:32.442Z,3763.13
2019-05-26T11:53:32.429Z,3712.50
2019-05-26T11:54:34.557Z,4055.63
2019-05-26T11:55:32.454Z,3954.38
2019-05-26T11:56:32.500Z,3470.63
2019-05-26T11:57:36.099Z,3245.63
2019-05-26T11:58:32.502Z,3324.38
2019-05-26T11:59:32.512Z,3515.63
2019-05-26T12:00:32.520Z,3532.50
2019-05-26T12:01:32.537Z,3746.25
2019-05-26T12:02:32.589Z,3898.13
2019-05-26T12:03:32.564Z,4286.25
2019-05-26T12:04:32.570Z,4713.75
2019-05-26T12:05:32.585Z,4685.63
2019-05-26T12:06:32.604Z,4764.38
2019-05-26T12:07:32.638Z,5152.50
2019-05-26T12:08:33.439Z,5377.50
2019-05-26T12:09:32.644Z,4961.25
2019-05-26T12:10:32.659Z,4831.88
2019-05-26T12:11:32.676Z,4460.63
2019-05-26T12:12:32.710Z,3611.25
2019-05-26T12:13:32.727Z,4185.00
2019-05-26T12:14:35.277Z,2086.88
2019-05-26T12:15:32.728Z,4370.63
2019-05-26T12:16:33.433Z,4758.75
2019-05-26T12:17:32.755Z,3695.63
2019-05-26T12:18:32.798Z,5265.00
2019-05-26T12:19:32.782Z,5028.75
2019-05-26T12:20:32.795Z,4781.25
2019-05-26T12:21:32.805Z,4685.63
2019-05-26T12:22:32.852Z,4438.13
2019-05-26T12:23:32.862Z,4398.75
2019-05-26T12:24:32.858Z,4528.13
2019-05-26T12:25:32.864Z,4516.88
2019-05-26T12:26:32.874Z,4128.75
2019-05-26T12:27:32.886Z,3864.38
2019-05-26T12:28:32.931Z,4055.63
2019-05-26T12:29:32.922Z,3920.63